sensor_id;sensor_type;location;lat;lon;timestamp;pressure;altitude;pressure_sealevel;temperature;humidity
63700;BME280;49845;47.130;142.766;2023-07-20T00:00:02;99994.63;;;21.90;85.77
63700;BME280;49845;47.130;142.766;2023-07-20T00:02:50;99998.91;;;22.06;85.46
63700;BME280;49845;47.130;142.766;2023-07-20T00:05:24;100001.56;;;22.18;84.45
63700;BME280;49845;47.130;142.766;2023-07-20T00:07:55;100004.59;;;22.27;83.77
63700;BME280;49845;47.130;142.766;2023-07-20T00:10:25;99998.22;;;22.29;82.43
63700;BME280;49845;47.130;142.766;2023-07-20T00:12:56;100001.41;;;22.34;83.18
63700;BME280;49845;47.130;142.766;2023-07-20T00:15:28;99995.75;;;22.52;82.91
63700;BME280;49845;47.130;142.766;2023-07-20T00:17:58;100002.88;;;22.64;81.92
63700;BME280;49845;47.130;142.766;2023-07-20T00:20:29;100000.75;;;22.69;81.38
63700;BME280;49845;47.130;142.766;2023-07-20T00:23:00;100006.38;;;22.77;81.36
63700;BME280;49845;47.130;142.766;2023-07-20T00:25:30;100003.56;;;22.92;81.73
63700;BME280;49845;47.130;142.766;2023-07-20T00:28:01;100008.06;;;23.04;80.63
63700;BME280;49845;47.130;142.766;2023-07-20T00:30:34;100016.19;;;23.14;80.68
63700;BME280;49845;47.130;142.766;2023-07-20T00:33:04;100005.94;;;23.20;78.75
63700;BME280;49845;47.130;142.766;2023-07-20T00:35:35;100000.81;;;23.30;79.00
63700;BME280;49845;47.130;142.766;2023-07-20T00:38:06;100000.34;;;23.36;78.68
63700;BME280;49845;47.130;142.766;2023-07-20T00:40:37;99989.84;;;23.46;78.20
63700;BME280;49845;47.130;142.766;2023-07-20T00:43:07;99994.41;;;23.57;77.48
63700;BME280;49845;47.130;142.766;2023-07-20T00:45:40;99995.97;;;23.59;77.06
63700;BME280;49845;47.130;142.766;2023-07-20T00:48:11;99988.25;;;23.67;76.81
63700;BME280;49845;47.130;142.766;2023-07-20T00:50:42;99989.03;;;23.81;76.55
63700;BME280;49845;47.130;142.766;2023-07-20T00:53:14;99982.00;;;23.80;76.33
63700;BME280;49845;47.130;142.766;2023-07-20T00:55:45;99982.50;;;23.85;76.36
63700;BME280;49845;47.130;142.766;2023-07-20T00:58:16;99988.00;;;23.95;76.72
63700;BME280;49845;47.130;142.766;2023-07-20T01:00:48;99993.25;;;24.19;76.80
63700;BME280;49845;47.130;142.766;2023-07-20T01:03:19;99990.38;;;24.33;75.29
63700;BME280;49845;47.130;142.766;2023-07-20T01:05:54;99994.25;;;24.40;74.06
63700;BME280;49845;47.130;142.766;2023-07-20T01:08:32;99987.72;;;24.44;73.68
63700;BME280;49845;47.130;142.766;2023-07-20T01:11:09;99983.63;;;24.51;75.10
63700;BME280;49845;47.130;142.766;2023-07-20T01:13:40;99985.31;;;24.64;74.35
63700;BME280;49845;47.130;142.766;2023-07-20T01:16:13;99979.81;;;24.43;74.18
63700;BME280;49845;47.130;142.766;2023-07-20T01:18:43;99984.19;;;24.32;74.59
63700;BME280;49845;47.130;142.766;2023-07-20T01:33:19;100000.72;;;25.16;74.01
63700;BME280;49845;47.130;142.766;2023-07-20T01:35:54;99984.03;;;25.13;74.08
63700;BME280;49845;47.130;142.766;2023-07-20T01:38:25;100000.09;;;25.24;72.97
63700;BME280;49845;47.130;142.766;2023-07-20T01:40:57;99995.53;;;25.36;72.22
63700;BME280;49845;47.130;142.766;2023-07-20T01:43:28;100002.94;;;25.44;72.59
63700;BME280;49845;47.130;142.766;2023-07-20T01:45:58;99995.38;;;25.49;71.77
63700;BME280;49845;47.130;142.766;2023-07-20T01:48:31;99990.78;;;25.39;72.18
63700;BME280;49845;47.130;142.766;2023-07-20T01:51:01;99995.88;;;25.43;72.68
63700;BME280;49845;47.130;142.766;2023-07-20T01:53:32;99992.16;;;25.34;72.14
63700;BME280;49845;47.130;142.766;2023-07-20T01:56:02;99993.97;;;25.33;73.24
63700;BME280;49845;47.130;142.766;2023-07-20T01:58:33;100001.91;;;25.56;73.10
63700;BME280;49845;47.130;142.766;2023-07-20T02:01:04;99980.66;;;25.75;72.20
63700;BME280;49845;47.130;142.766;2023-07-20T02:03:36;99985.41;;;26.04;71.56
63700;BME280;49845;47.130;142.766;2023-07-20T02:06:07;99986.31;;;26.14;70.26
63700;BME280;49845;47.130;142.766;2023-07-20T02:08:37;99985.59;;;26.12;69.47
63700;BME280;49845;47.130;142.766;2023-07-20T02:11:08;99984.09;;;26.19;69.56
63700;BME280;49845;47.130;142.766;2023-07-20T02:13:38;99975.44;;;26.37;69.30
63700;BME280;49845;47.130;142.766;2023-07-20T02:16:09;99980.97;;;26.66;68.59
63700;BME280;49845;47.130;142.766;2023-07-20T02:18:41;99961.53;;;26.74;67.39
63700;BME280;49845;47.130;142.766;2023-07-20T02:21:12;99973.34;;;26.61;67.36
63700;BME280;49845;47.130;142.766;2023-07-20T02:23:42;99967.34;;;26.27;67.48
63700;BME280;49845;47.130;142.766;2023-07-20T02:26:13;99961.81;;;25.98;68.66
63700;BME280;49845;47.130;142.766;2023-07-20T02:28:43;99961.66;;;25.78;68.26
63700;BME280;49845;47.130;142.766;2023-07-20T02:31:14;99976.09;;;25.66;70.36
63700;BME280;49845;47.130;142.766;2023-07-20T02:33:46;99972.28;;;25.48;69.80
63700;BME280;49845;47.130;142.766;2023-07-20T02:36:16;99964.81;;;25.30;70.83
63700;BME280;49845;47.130;142.766;2023-07-20T02:38:48;99968.47;;;25.29;72.24
63700;BME280;49845;47.130;142.766;2023-07-20T02:41:18;99971.88;;;25.20;71.89
63700;BME280;49845;47.130;142.766;2023-07-20T02:43:49;99957.28;;;25.13;72.66
63700;BME280;49845;47.130;142.766;2023-07-20T02:46:20;99961.69;;;25.03;72.69
63700;BME280;49845;47.130;142.766;2023-07-20T02:48:52;99956.59;;;25.00;73.69
63700;BME280;49845;47.130;142.766;2023-07-20T02:51:23;99945.28;;;24.96;74.13
63700;BME280;49845;47.130;142.766;2023-07-20T02:53:53;99953.72;;;24.91;74.18
63700;BME280;49845;47.130;142.766;2023-07-20T02:56:24;99938.31;;;24.84;73.26
63700;BME280;49845;47.130;142.766;2023-07-20T02:58:54;99938.41;;;24.82;73.06
63700;BME280;49845;47.130;142.766;2023-07-20T03:01:25;99944.25;;;24.76;73.76
63700;BME280;49845;47.130;142.766;2023-07-20T03:03:59;99938.44;;;24.60;74.09
63700;BME280;49845;47.130;142.766;2023-07-20T03:06:30;99944.75;;;24.47;74.46
63700;BME280;49845;47.130;142.766;2023-07-20T03:09:04;99943.25;;;24.43;74.23
63700;BME280;49845;47.130;142.766;2023-07-20T03:11:35;99954.72;;;24.45;73.72
63700;BME280;49845;47.130;142.766;2023-07-20T03:14:06;99947.69;;;24.67;74.56
63700;BME280;49845;47.130;142.766;2023-07-20T03:16:36;99953.19;;;24.97;74.71
63700;BME280;49845;47.130;142.766;2023-07-20T03:19:09;99955.59;;;25.12;72.69
63700;BME280;49845;47.130;142.766;2023-07-20T03:21:40;99952.91;;;25.23;71.81
63700;BME280;49845;47.130;142.766;2023-07-20T03:24:10;99953.63;;;25.36;71.76
63700;BME280;49845;47.130;142.766;2023-07-20T03:26:41;99948.50;;;25.33;70.25
63700;BME280;49845;47.130;142.766;2023-07-20T03:29:11;99951.91;;;25.35;70.11
63700;BME280;49845;47.130;142.766;2023-07-20T03:31:42;99956.28;;;25.36;70.13
63700;BME280;49845;47.130;142.766;2023-07-20T03:34:14;99953.09;;;25.43;70.55
63700;BME280;49845;47.130;142.766;2023-07-20T03:36:45;99954.28;;;25.50;70.35
63700;BME280;49845;47.130;142.766;2023-07-20T03:39:15;99961.31;;;25.51;71.04
63700;BME280;49845;47.130;142.766;2023-07-20T03:41:46;99958.78;;;25.49;69.61
63700;BME280;49845;47.130;142.766;2023-07-20T03:44:16;99955.28;;;25.37;70.54
63700;BME280;49845;47.130;142.766;2023-07-20T03:46:47;99963.44;;;25.36;70.77
63700;BME280;49845;47.130;142.766;2023-07-20T03:49:19;99961.31;;;25.51;70.74
63700;BME280;49845;47.130;142.766;2023-07-20T03:51:49;99952.22;;;25.74;70.54
63700;BME280;49845;47.130;142.766;2023-07-20T03:54:20;99945.09;;;25.85;70.08
63700;BME280;49845;47.130;142.766;2023-07-20T03:56:50;99943.09;;;25.98;70.38
63700;BME280;49845;47.130;142.766;2023-07-20T03:59:21;99941.41;;;25.97;68.86
63700;BME280;49845;47.130;142.766;2023-07-20T04:01:51;99937.72;;;25.98;69.54
63700;BME280;49845;47.130;142.766;2023-07-20T04:04:23;99937.44;;;25.91;70.49
63700;BME280;49845;47.130;142.766;2023-07-20T04:06:54;99927.75;;;26.00;69.80
63700;BME280;49845;47.130;142.766;2023-07-20T04:09:24;99924.56;;;26.06;69.68
63700;BME280;49845;47.130;142.766;2023-07-20T04:11:55;99918.38;;;26.15;69.36
63700;BME280;49845;47.130;142.766;2023-07-20T04:14:25;99919.22;;;26.16;69.76
63700;BME280;49845;47.130;142.766;2023-07-20T04:16:56;99926.19;;;26.28;69.39
63700;BME280;49845;47.130;142.766;2023-07-20T04:19:29;99917.31;;;26.28;68.54
63700;BME280;49845;47.130;142.766;2023-07-20T04:21:59;99921.28;;;26.33;68.87
63700;BME280;49845;47.130;142.766;2023-07-20T04:24:30;99891.59;;;26.15;69.00
63700;BME280;49845;47.130;142.766;2023-07-20T04:27:01;99924.56;;;26.37;69.24
63700;BME280;49845;47.130;142.766;2023-07-20T04:29:31;99919.91;;;26.39;68.89
63700;BME280;49845;47.130;142.766;2023-07-20T04:32:02;99908.88;;;26.32;67.22
63700;BME280;49845;47.130;142.766;2023-07-20T04:34:34;99907.66;;;26.15;67.19
63700;BME280;49845;47.130;142.766;2023-07-20T04:37:05;99912.75;;;26.18;68.85
63700;BME280;49845;47.130;142.766;2023-07-20T04:39:36;99914.78;;;26.26;68.18
63700;BME280;49845;47.130;142.766;2023-07-20T04:42:06;99917.03;;;26.31;67.71
63700;BME280;49845;47.130;142.766;2023-07-20T04:44:37;99927.41;;;26.45;67.92
63700;BME280;49845;47.130;142.766;2023-07-20T04:47:07;99922.75;;;26.47;67.98
63700;BME280;49845;47.130;142.766;2023-07-20T04:49:40;99923.38;;;26.60;68.96
63700;BME280;49845;47.130;142.766;2023-07-20T04:52:10;99925.34;;;26.58;67.32
63700;BME280;49845;47.130;142.766;2023-07-20T04:54:40;99932.97;;;26.63;68.18
63700;BME280;49845;47.130;142.766;2023-07-20T04:57:12;99936.97;;;26.68;66.92
63700;BME280;49845;47.130;142.766;2023-07-20T04:59:42;99946.78;;;26.58;66.25
63700;BME280;49845;47.130;142.766;2023-07-20T05:02:13;99949.03;;;26.53;67.01
63700;BME280;49845;47.130;142.766;2023-07-20T05:04:45;99948.09;;;26.43;67.03
63700;BME280;49845;47.130;142.766;2023-07-20T05:07:16;99946.44;;;26.42;67.17
63700;BME280;49845;47.130;142.766;2023-07-20T05:09:47;99936.50;;;26.33;67.24
63700;BME280;49845;47.130;142.766;2023-07-20T05:12:18;99943.75;;;26.11;67.36
63700;BME280;49845;47.130;142.766;2023-07-20T05:15:00;99940.75;;;25.83;67.40
63700;BME280;49845;47.130;142.766;2023-07-20T05:17:50;99950.25;;;25.76;67.91
63700;BME280;49845;47.130;142.766;2023-07-20T05:20:32;99922.72;;;25.86;69.11
63700;BME280;49845;47.130;142.766;2023-07-20T05:23:03;99935.00;;;26.09;68.53
63700;BME280;49845;47.130;142.766;2023-07-20T05:25:33;99933.28;;;26.08;68.02
63700;BME280;49845;47.130;142.766;2023-07-20T05:28:05;99932.88;;;26.13;67.99
63700;BME280;49845;47.130;142.766;2023-07-20T05:30:35;99928.25;;;26.15;67.01
63700;BME280;49845;47.130;142.766;2023-07-20T05:33:06;99939.19;;;26.02;67.30
63700;BME280;49845;47.130;142.766;2023-07-20T05:35:38;99930.81;;;25.74;67.06
63700;BME280;49845;47.130;142.766;2023-07-20T05:38:09;99924.38;;;25.45;68.14
63700;BME280;49845;47.130;142.766;2023-07-20T05:40:41;99939.78;;;25.31;69.07
63700;BME280;49845;47.130;142.766;2023-07-20T05:43:11;99904.84;;;25.01;69.49
63700;BME280;49845;47.130;142.766;2023-07-20T05:45:45;99929.25;;;24.96;70.00
63700;BME280;49845;47.130;142.766;2023-07-20T05:48:16;99925.88;;;24.94;70.87
63700;BME280;49845;47.130;142.766;2023-07-20T05:50:48;99929.25;;;24.96;70.37
63700;BME280;49845;47.130;142.766;2023-07-20T05:53:18;99932.66;;;25.09;70.83
63700;BME280;49845;47.130;142.766;2023-07-20T05:55:52;99933.06;;;25.37;69.80
63700;BME280;49845;47.130;142.766;2023-07-20T05:58:23;99942.91;;;25.36;68.43
63700;BME280;49845;47.130;142.766;2023-07-20T06:00:54;99938.59;;;25.24;68.90
63700;BME280;49845;47.130;142.766;2023-07-20T06:03:24;99942.38;;;25.43;69.13
63700;BME280;49845;47.130;142.766;2023-07-20T06:06:00;99936.69;;;25.36;68.17
63700;BME280;49845;47.130;142.766;2023-07-20T06:08:32;99928.47;;;25.28;68.00
63700;BME280;49845;47.130;142.766;2023-07-20T06:11:03;99935.19;;;25.22;67.97
63700;BME280;49845;47.130;142.766;2023-07-20T06:13:33;99944.91;;;25.12;68.31
63700;BME280;49845;47.130;142.766;2023-07-20T06:16:04;99949.53;;;24.98;68.91
63700;BME280;49845;47.130;142.766;2023-07-20T06:18:35;99944.72;;;24.92;69.09
63700;BME280;49845;47.130;142.766;2023-07-20T06:21:07;99952.00;;;24.90;69.38
63700;BME280;49845;47.130;142.766;2023-07-20T06:23:38;99939.03;;;24.74;69.98
63700;BME280;49845;47.130;142.766;2023-07-20T06:26:08;99945.25;;;24.64;70.72
63700;BME280;49845;47.130;142.766;2023-07-20T06:28:38;99948.19;;;24.49;70.71
63700;BME280;49845;47.130;142.766;2023-07-20T06:31:09;99955.28;;;24.38;70.99
63700;BME280;49845;47.130;142.766;2023-07-20T06:33:40;99954.44;;;24.26;71.39
63700;BME280;49845;47.130;142.766;2023-07-20T06:36:12;99952.00;;;24.23;71.99
63700;BME280;49845;47.130;142.766;2023-07-20T06:38:42;99956.13;;;24.16;72.79
63700;BME280;49845;47.130;142.766;2023-07-20T06:41:33;99959.63;;;24.05;72.37
63700;BME280;49845;47.130;142.766;2023-07-20T06:44:06;99958.25;;;23.88;71.80
63700;BME280;49845;47.130;142.766;2023-07-20T06:46:37;99959.44;;;23.73;72.22
63700;BME280;49845;47.130;142.766;2023-07-20T06:49:07;99963.06;;;23.72;72.71
63700;BME280;49845;47.130;142.766;2023-07-20T06:51:42;99965.72;;;23.72;73.21
63700;BME280;49845;47.130;142.766;2023-07-20T06:54:12;99951.69;;;23.81;72.74
63700;BME280;49845;47.130;142.766;2023-07-20T06:56:50;99955.84;;;23.96;72.40
63700;BME280;49845;47.130;142.766;2023-07-20T06:59:24;99947.88;;;24.07;72.53
63700;BME280;49845;47.130;142.766;2023-07-20T07:01:54;99950.06;;;24.25;72.53
63700;BME280;49845;47.130;142.766;2023-07-20T07:04:25;99944.47;;;24.28;71.29
63700;BME280;49845;47.130;142.766;2023-07-20T07:06:57;99947.88;;;24.07;70.85
63700;BME280;49845;47.130;142.766;2023-07-20T07:09:28;99950.16;;;23.89;71.86
63700;BME280;49845;47.130;142.766;2023-07-20T07:11:58;99939.09;;;23.83;72.11
63700;BME280;49845;47.130;142.766;2023-07-20T07:14:30;99952.91;;;23.88;71.98
63700;BME280;49845;47.130;142.766;2023-07-20T07:17:00;99949.22;;;23.66;71.64
63700;BME280;49845;47.130;142.766;2023-07-20T07:19:32;99962.72;;;23.52;72.40
63700;BME280;49845;47.130;142.766;2023-07-20T07:22:05;99966.13;;;23.54;72.20
63700;BME280;49845;47.130;142.766;2023-07-20T07:24:35;99961.88;;;23.52;72.76
63700;BME280;49845;47.130;142.766;2023-07-20T07:27:06;99956.41;;;23.53;72.51
63700;BME280;49845;47.130;142.766;2023-07-20T07:29:37;99964.19;;;23.56;72.40
63700;BME280;49845;47.130;142.766;2023-07-20T07:32:08;99965.91;;;23.57;72.58
63700;BME280;49845;47.130;142.766;2023-07-20T07:34:38;99967.59;;;23.58;71.85
63700;BME280;49845;47.130;142.766;2023-07-20T07:37:11;99968.06;;;23.52;71.36
63700;BME280;49845;47.130;142.766;2023-07-20T07:39:41;99954.63;;;23.30;71.52
63700;BME280;49845;47.130;142.766;2023-07-20T07:42:12;99978.41;;;23.33;71.89
63700;BME280;49845;47.130;142.766;2023-07-20T07:44:42;99968.47;;;23.35;72.52
63700;BME280;49845;47.130;142.766;2023-07-20T07:47:13;99962.63;;;23.30;72.13
63700;BME280;49845;47.130;142.766;2023-07-20T07:49:43;99981.44;;;23.15;71.99
63700;BME280;49845;47.130;142.766;2023-07-20T07:52:16;99977.88;;;23.03;72.91
63700;BME280;49845;47.130;142.766;2023-07-20T07:54:46;99978.94;;;23.01;73.16
63700;BME280;49845;47.130;142.766;2023-07-20T07:57:17;99953.22;;;22.63;72.79
63700;BME280;49845;47.130;142.766;2023-07-20T07:59:48;99983.50;;;22.62;73.08
63700;BME280;49845;47.130;142.766;2023-07-20T08:02:19;99985.00;;;22.40;73.88
63700;BME280;49845;47.130;142.766;2023-07-20T08:04:50;99984.75;;;22.18;74.88
63700;BME280;49845;47.130;142.766;2023-07-20T08:07:22;99989.22;;;22.05;75.78
63700;BME280;49845;47.130;142.766;2023-07-20T08:09:53;99990.28;;;21.89;76.44
63700;BME280;49845;47.130;142.766;2023-07-20T08:12:24;99989.59;;;21.73;76.46
63700;BME280;49845;47.130;142.766;2023-07-20T08:14:54;99995.59;;;21.49;77.70
63700;BME280;49845;47.130;142.766;2023-07-20T08:17:25;100004.72;;;21.31;78.30
63700;BME280;49845;47.130;142.766;2023-07-20T08:19:56;99995.38;;;21.11;79.28
63700;BME280;49845;47.130;142.766;2023-07-20T08:22:28;99997.91;;;21.00;79.96
63700;BME280;49845;47.130;142.766;2023-07-20T08:24:58;100003.28;;;20.98;80.19
63700;BME280;49845;47.130;142.766;2023-07-20T08:27:29;99974.72;;;20.75;80.91
63700;BME280;49845;47.130;142.766;2023-07-20T08:30:00;100008.59;;;20.98;80.67
63700;BME280;49845;47.130;142.766;2023-07-20T08:32:31;100014.69;;;20.86;80.32
63700;BME280;49845;47.130;142.766;2023-07-20T08:35:02;99983.00;;;20.54;80.90
63700;BME280;49845;47.130;142.766;2023-07-20T08:37:34;100004.47;;;20.65;81.52
63700;BME280;49845;47.130;142.766;2023-07-20T08:40:05;100027.03;;;20.73;81.92
63700;BME280;49845;47.130;142.766;2023-07-20T08:42:39;100007.31;;;20.62;81.61
63700;BME280;49845;47.130;142.766;2023-07-20T08:45:09;100028.75;;;20.74;81.13
63700;BME280;49845;47.130;142.766;2023-07-20T08:47:43;100011.47;;;20.52;81.54
63700;BME280;49845;47.130;142.766;2023-07-20T08:50:16;100025.34;;;20.57;81.77
63700;BME280;49845;47.130;142.766;2023-07-20T08:52:49;100034.78;;;20.47;81.58
63700;BME280;49845;47.130;142.766;2023-07-20T08:55:23;100035.69;;;20.32;82.13
63700;BME280;49845;47.130;142.766;2023-07-20T08:57:55;100030.28;;;20.19;82.63
63700;BME280;49845;47.130;142.766;2023-07-20T09:00:26;100040.22;;;20.15;83.63
63700;BME280;49845;47.130;142.766;2023-07-20T09:03:03;100043.81;;;20.14;83.50
63700;BME280;49845;47.130;142.766;2023-07-20T09:05:33;100055.53;;;19.96;83.54
63700;BME280;49845;47.130;142.766;2023-07-20T09:08:13;100062.06;;;19.74;84.90
63700;BME280;49845;47.130;142.766;2023-07-20T09:10:54;100059.16;;;19.63;85.62
63700;BME280;49845;47.130;142.766;2023-07-20T09:13:49;100066.19;;;19.48;86.68
63700;BME280;49845;47.130;142.766;2023-07-20T09:16:47;100055.59;;;19.32;87.39
63700;BME280;49845;47.130;142.766;2023-07-20T09:19:22;100057.78;;;19.24;88.29
63700;BME280;49845;47.130;142.766;2023-07-20T09:22:00;100055.69;;;19.15;89.07
63700;BME280;49845;47.130;142.766;2023-07-20T09:24:38;100068.47;;;19.07;89.80
63700;BME280;49845;47.130;142.766;2023-07-20T09:27:13;100064.28;;;19.03;90.51
63700;BME280;49845;47.130;142.766;2023-07-20T09:29:53;99970.13;;;18.32;91.10
63700;BME280;49845;47.130;142.766;2023-07-20T09:32:39;100065.72;;;18.92;91.54
63700;BME280;49845;47.130;142.766;2023-07-20T09:35:23;100069.31;;;18.91;91.60
63700;BME280;49845;47.130;142.766;2023-07-20T09:38:05;100067.47;;;18.76;91.89
63700;BME280;49845;47.130;142.766;2023-07-20T09:40:42;100088.19;;;18.68;91.89
63700;BME280;49845;47.130;142.766;2023-07-20T09:43:22;100085.09;;;18.60;93.27
63700;BME280;49845;47.130;142.766;2023-07-20T09:46:07;100081.06;;;18.52;93.48
63700;BME280;49845;47.130;142.766;2023-07-20T09:49:02;100079.50;;;18.48;93.75
63700;BME280;49845;47.130;142.766;2023-07-20T09:51:36;100079.97;;;18.39;94.20
63700;BME280;49845;47.130;142.766;2023-07-20T09:54:10;100073.28;;;18.32;95.06
63700;BME280;49845;47.130;142.766;2023-07-20T10:00:31;100083.09;;;18.30;95.69
63700;BME280;49845;47.130;142.766;2023-07-20T10:03:34;100068.53;;;18.04;96.09
63700;BME280;49845;47.130;142.766;2023-07-20T10:06:50;100101.28;;;18.19;96.94
63700;BME280;49845;47.130;142.766;2023-07-20T10:09:48;100095.94;;;18.20;96.63
63700;BME280;49845;47.130;142.766;2023-07-20T10:12:26;100095.69;;;18.07;96.75
63700;BME280;49845;47.130;142.766;2023-07-20T10:15:13;100106.41;;;18.04;97.54
63700;BME280;49845;47.130;142.766;2023-07-20T10:18:03;100094.28;;;18.00;97.93
63700;BME280;49845;47.130;142.766;2023-07-20T10:20:40;100054.19;;;17.73;98.28
63700;BME280;49845;47.130;142.766;2023-07-20T10:23:16;100108.13;;;18.05;98.63
63700;BME280;49845;47.130;142.766;2023-07-20T10:25:59;100103.63;;;18.07;98.22
63700;BME280;49845;47.130;142.766;2023-07-20T10:28:33;100117.75;;;18.06;98.13
63700;BME280;49845;47.130;142.766;2023-07-20T10:31:06;100110.16;;;18.00;98.37
63700;BME280;49845;47.130;142.766;2023-07-20T10:33:41;100110.31;;;17.97;98.49
63700;BME280;49845;47.130;142.766;2023-07-20T10:36:13;100107.88;;;17.93;98.55
63700;BME280;49845;47.130;142.766;2023-07-20T10:38:53;100110.91;;;17.85;99.15
63700;BME280;49845;47.130;142.766;2023-07-20T10:41:29;100104.06;;;17.81;99.54
63700;BME280;49845;47.130;142.766;2023-07-20T10:44:02;100101.41;;;17.81;99.86
63700;BME280;49845;47.130;142.766;2023-07-20T10:46:42;100116.31;;;17.82;99.85
63700;BME280;49845;47.130;142.766;2023-07-20T10:49:17;100120.09;;;17.76;99.93
63700;BME280;49845;47.130;142.766;2023-07-20T10:51:59;100128.19;;;17.73;100.00
63700;BME280;49845;47.130;142.766;2023-07-20T10:54:52;100124.16;;;17.64;100.00
63700;BME280;49845;47.130;142.766;2023-07-20T10:57:30;100142.03;;;17.59;100.00
63700;BME280;49845;47.130;142.766;2023-07-20T11:00:13;100153.59;;;17.57;100.00
63700;BME280;49845;47.130;142.766;2023-07-20T11:02:45;100149.47;;;17.51;100.00
63700;BME280;49845;47.130;142.766;2023-07-20T11:05:38;100148.03;;;17.44;100.00
63700;BME280;49845;47.130;142.766;2023-07-20T11:08:15;100154.63;;;17.35;100.00
63700;BME280;49845;47.130;142.766;2023-07-20T11:11:23;100155.31;;;17.20;100.00
63700;BME280;49845;47.130;142.766;2023-07-20T11:13:56;100120.19;;;16.99;100.00
63700;BME280;49845;47.130;142.766;2023-07-20T11:16:41;100158.03;;;17.18;100.00
63700;BME280;49845;47.130;142.766;2023-07-20T11:19:17;100172.03;;;17.20;100.00
63700;BME280;49845;47.130;142.766;2023-07-20T11:21:55;100157.00;;;17.02;100.00
63700;BME280;49845;47.130;142.766;2023-07-20T11:24:32;100178.22;;;17.19;100.00
63700;BME280;49845;47.130;142.766;2023-07-20T11:27:06;100157.53;;;17.10;100.00
63700;BME280;49845;47.130;142.766;2023-07-20T11:29:39;100173.06;;;17.16;100.00
63700;BME280;49845;47.130;142.766;2023-07-20T11:32:22;100185.63;;;17.11;100.00
63700;BME280;49845;47.130;142.766;2023-07-20T11:34:54;100184.81;;;17.09;100.00
63700;BME280;49845;47.130;142.766;2023-07-20T11:37:27;100186.69;;;17.07;100.00
63700;BME280;49845;47.130;142.766;2023-07-20T11:40:00;100163.25;;;16.99;100.00
63700;BME280;49845;47.130;142.766;2023-07-20T11:42:33;100169.13;;;17.06;100.00
63700;BME280;49845;47.130;142.766;2023-07-20T11:45:11;100164.69;;;17.07;100.00
63700;BME280;49845;47.130;142.766;2023-07-20T11:47:43;100171.97;;;17.01;100.00
63700;BME280;49845;47.130;142.766;2023-07-20T11:50:16;100170.28;;;17.00;100.00
63700;BME280;49845;47.130;142.766;2023-07-20T11:52:49;100171.13;;;17.01;100.00
63700;BME280;49845;47.130;142.766;2023-07-20T11:55:21;100177.34;;;17.00;100.00
63700;BME280;49845;47.130;142.766;2023-07-20T11:58:03;100169.53;;;16.97;100.00
63700;BME280;49845;47.130;142.766;2023-07-20T12:00:35;100162.69;;;16.93;100.00
63700;BME280;49845;47.130;142.766;2023-07-20T12:03:11;100159.50;;;16.85;100.00
63700;BME280;49845;47.130;142.766;2023-07-20T12:05:43;100152.69;;;16.80;100.00
63700;BME280;49845;47.130;142.766;2023-07-20T12:08:23;100154.25;;;16.85;100.00
63700;BME280;49845;47.130;142.766;2023-07-20T12:10:55;100157.03;;;16.81;100.00
63700;BME280;49845;47.130;142.766;2023-07-20T12:13:37;100156.22;;;16.79;100.00
63700;BME280;49845;47.130;142.766;2023-07-20T12:16:16;100125.34;;;16.61;100.00
63700;BME280;49845;47.130;142.766;2023-07-20T12:19:00;100168.72;;;16.74;100.00
63700;BME280;49845;47.130;142.766;2023-07-20T12:21:33;100069.31;;;16.15;100.00
63700;BME280;49845;47.130;142.766;2023-07-20T12:24:08;100153.19;;;16.68;100.00
63700;BME280;49845;47.130;142.766;2023-07-20T12:26:40;100172.16;;;16.76;100.00
63700;BME280;49845;47.130;142.766;2023-07-20T12:29:13;100181.00;;;16.75;100.00
63700;BME280;49845;47.130;142.766;2023-07-20T12:31:45;100180.06;;;16.78;100.00
63700;BME280;49845;47.130;142.766;2023-07-20T12:34:17;100173.00;;;16.78;100.00
63700;BME280;49845;47.130;142.766;2023-07-20T12:36:49;100179.16;;;16.77;100.00
63700;BME280;49845;47.130;142.766;2023-07-20T12:39:22;100180.06;;;16.78;100.00
63700;BME280;49845;47.130;142.766;2023-07-20T12:41:54;100178.38;;;16.75;100.00
63700;BME280;49845;47.130;142.766;2023-07-20T12:44:26;100162.09;;;16.45;100.00
63700;BME280;49845;47.130;142.766;2023-07-20T12:46:58;100197.38;;;16.63;100.00
63700;BME280;49845;47.130;142.766;2023-07-20T12:49:30;100171.66;;;16.48;100.00
63700;BME280;49845;47.130;142.766;2023-07-20T12:52:01;100192.09;;;16.63;100.00
63700;BME280;49845;47.130;142.766;2023-07-20T12:54:35;100199.06;;;16.64;100.00
63700;BME280;49845;47.130;142.766;2023-07-20T12:57:07;100200.00;;;16.63;100.00
63700;BME280;49845;47.130;142.766;2023-07-20T12:59:40;100202.50;;;16.66;100.00
63700;BME280;49845;47.130;142.766;2023-07-20T13:02:12;100198.16;;;16.65;100.00
63700;BME280;49845;47.130;142.766;2023-07-20T13:04:44;100210.28;;;16.69;100.00
63700;BME280;49845;47.130;142.766;2023-07-20T13:07:22;100212.91;;;16.69;100.00
63700;BME280;49845;47.130;142.766;2023-07-20T13:10:05;100204.63;;;16.58;100.00
63700;BME280;49845;47.130;142.766;2023-07-20T13:12:38;100211.59;;;16.59;100.00
63700;BME280;49845;47.130;142.766;2023-07-20T13:15:13;100200.72;;;16.46;100.00
63700;BME280;49845;47.130;142.766;2023-07-20T13:17:46;100221.66;;;16.49;100.00
63700;BME280;49845;47.130;142.766;2023-07-20T13:20:20;100211.97;;;16.50;100.00